Date,TemperatureHighF,TemperatureAvgF,TemperatureLowF,DewpointHighF,DewpointAvgF,DewpointLowF,HumidityHigh,HumidityAvg,HumidityLow,PressureMaxIn,PressureMinIn,WindSpeedMaxMPH,WindSpeedAvgMPH,GustSpeedMaxMPH,PrecipitationSumIn
2013-1-1,38,33,28,33,30,27,93,89,77,30.50,30.35,2,0,4,0.02
2013-1-2,47,38,33,31,24,18,86,58,38,30.33,30.15,5,2,7,0.00
2013-1-3,45,37,32,34,20,16,91,51,34,30.15,30.05,8,4,14,0.06
2013-1-4,48,42,37,43,39,35,93,90,80,30.27,30.10,9,2,10,0.01
2013-1-5,42,41,38,36,34,30,90,76,65,30.16,30.05,6,2,11,0.11
2013-1-6,43,40,38,38,37,35,93,89,81,30.13,29.94,7,3,9,0.32
2013-1-7,48,44,39,46,42,37,94,93,91,30.09,29.76,9,3,13,0.89
2013-1-8,49,44,40,48,42,37,94,93,91,30.10,29.65,14,4,18,0.72
2013-1-9,49,38,33,47,36,31,94,93,92,29.91,29.57,7,2,25,1.30
2013-1-10,34,34,33,32,32,32,94,94,93,29.95,29.91,3,2,3,0.00
2013-1-11,35,30,25,32,28,23,93,92,89,30.34,30.27,2,0,3,0.07
2013-1-12,33,28,25,27,24,22,90,85,71,30.44,30.32,5,1,6,0.06
2013-1-13,33,28,24,27,24,21,89,84,72,30.50,30.45,2,0,3,0.02
2013-1-14,33,31,29,31,28,25,93,89,85,30.56,30.48,2,0,3,0.03
2013-1-15,41,35,31,38,32,28,94,88,72,30.70,30.57,2,0,3,0.01
2013-1-16,40,32,28,33,29,26,93,88,74,30.68,30.52,2,0,5,0.00
2013-1-17,41,33,28,34,30,26,93,90,77,30.52,30.27,4,1,4,0.01
2013-1-18,34,30,28,31,28,26,93,92,91,30.35,30.25,2,0,5,0.01
2013-1-19,30,27,25,28,25,22,93,92,91,30.40,30.34,2,0,2,0.02
2013-1-20,32,28,23,30,26,20,94,92,90,30.41,30.27,2,0,2,0.01
2013-1-21,30,26,22,28,24,19,93,91,89,30.27,30.15,2,0,2,0.00
2013-1-22,41,33,25,38,30,22,94,92,66,30.16,29.85,2,0,5,0.00
2013-1-23,44,40,37,38,32,24,93,75,46,30.05,29.78,8,2,12,0.42
2013-1-24,44,40,39,38,36,34,94,87,73,30.17,29.99,6,2,14,0.18
2013-1-25,48,43,39,43,40,36,94,89,77,29.99,29.86,11,2,12,0.04
2013-1-26,40,38,36,37,36,34,93,91,82,29.95,29.81,6,2,10,0.98
2013-1-27,40,38,36,38,36,34,94,94,93,30.00,29.94,6,2,9,0.43
2013-1-28,37,36,34,36,34,32,94,94,94,30.03,29.95,3,2,7,1.99
2013-1-29,44,40,38,42,39,37,95,94,94,30.29,30.04,6,2,7,1.34
2013-1-30,47,44,42,46,43,40,95,95,94,30.33,30.29,5,1,8,0.19
2013-1-31,46,45,44,44,43,42,95,94,92,30.32,30.25,6,2,12,0.19
2013-2-1,50,44,39,45,41,37,95,91,74,30.36,30.27,2,1,2,0.05
2013-2-2,39,37,32,38,35,31,94,94,93,30.34,30.23,3,0,3,0.02
2013-2-3,45,41,34,43,39,32,95,94,91,30.26,30.16,5,2,8,0.18
2013-2-4,48,44,42,42,41,40,94,89,79,30.15,29.81,5,1,11,0.00
2013-2-5,47,44,42,42,40,39,93,87,73,29.84,29.75,8,4,14,0.15
2013-2-6,46,43,42,39,37,35,88,80,67,29.98,29.71,13,5,14,0.04
2013-2-7,48,41,34,38,35,31,91,80,63,30.14,29.73,12,3,12,0.25
2013-2-8,40,36,30,35,32,28,93,88,78,30.28,30.15,2,1,6,0.01
2013-2-9,41,38,36,39,36,34,94,92,88,30.30,30.23,2,0,3,0.08
2013-2-10,43,38,32,37,35,31,94,88,76,30.35,30.29,3,0,4,0.00
2013-2-11,41,39,37,39,37,35,93,91,89,30.33,30.29,5,1,6,0.04
2013-2-12,47,44,40,44,41,38,93,91,83,30.36,30.24,6,2,11,0.01
2013-2-13,46,44,41,43,41,38,92,89,83,30.45,30.25,2,0,6,0.17
2013-2-14,47,43,40,42,40,38,94,89,78,30.53,30.45,3,1,7,0.07
2013-2-15,54,43,37,43,39,35,94,86,67,30.51,30.15,5,1,7,0.00
2013-2-16,45,42,40,42,40,36,94,90,81,30.14,30.05,4,1,10,1.38
2013-2-17,41,39,36,38,36,32,93,89,83,30.20,30.09,5,1,6,0.16
2013-2-18,43,38,33,35,32,30,88,81,73,30.07,29.70,5,2,6,0.00
2013-2-19,48,40,35,34,32,30,91,74,53,29.93,29.67,6,1,7,0.00
2013-2-20,42,38,35,36,34,32,91,87,74,29.99,29.94,3,1,10,0.01
2013-2-21,40,38,37,38,36,33,94,92,86,30.01,29.95,6,2,12,0.13
2013-2-22,43,39,33,39,36,31,94,91,84,29.99,29.60,11,4,22,0.51
2013-2-23,44,39,36,38,35,34,93,87,68,30.33,29.84,5,1,9,0.57
2013-2-24,43,40,37,36,34,33,90,80,71,30.34,29.92,12,4,14,0.01
2013-2-25,48,41,38,39,34,28,93,78,48,30.25,29.83,9,3,13,0.12
2013-2-26,44,40,35,34,32,29,86,72,55,30.32,30.15,7,2,12,0.03
2013-2-27,49,42,38,40,37,32,92,83,56,30.26,30.16,5,1,11,0.29
2013-2-28,50,44,39,48,42,37,93,92,91,30.24,30.14,13,4,13,0.38
2013-3-1,55,53,50,49,47,45,93,82,74,30.26,30.20,12,5,18,0.00
2013-3-2,54,47,38,45,41,35,93,80,69,30.19,29.97,9,4,14,0.38
2013-3-3,45,38,33,39,34,30,93,87,60,30.29,30.12,5,1,7,0.28
2013-3-4,52,40,30,32,28,24,91,66,36,30.28,29.88,7,2,11,0.01
2013-3-5,54,45,41,36,29,23,81,55,38,29.86,29.66,3,1,12,0.00
2013-3-6,41,39,37,39,36,33,93,89,80,29.82,29.51,3,0,10,0.49
2013-3-7,47,40,36,42,38,34,93,91,84,30.05,29.84,7,3,11,0.21
2013-3-8,50,40,33,39,35,32,93,84,63,30.18,30.02,3,0,7,0.01
2013-3-9,53,42,34,38,35,32,91,77,58,30.46,30.20,5,1,11,0.00
2013-3-10,45,42,38,38,36,33,88,79,67,30.45,30.39,6,1,7,0.00
2013-3-11,52,44,37,42,38,34,92,78,51,30.40,30.11,5,1,10,0.01
2013-3-12,50,49,46,48,46,40,93,88,77,30.08,29.98,8,4,14,0.60
2013-3-13,51,50,49,49,48,46,93,91,86,30.11,30.01,8,3,12,0.37
2013-3-14,52,49,47,49,46,42,93,88,82,30.06,29.95,6,2,10,0.03
2013-3-15,56,51,46,48,46,44,93,84,66,30.14,30.06,6,2,6,0.00
2013-3-16,49,42,34,44,39,32,93,88,73,30.05,29.81,8,2,11,0.41
2013-3-17,44,38,33,37,35,31,94,88,68,30.15,29.90,3,1,5,0.24
2013-3-18,49,40,34,38,33,28,93,77,46,30.21,30.07,10,2,16,0.17
2013-3-19,53,41,34,39,31,23,89,71,31,30.20,29.55,16,4,19,0.12
2013-3-20,50,43,33,45,39,31,93,86,71,29.93,29.30,14,6,25,1.10
2013-3-21,43,37,33,38,34,30,93,87,73,30.16,29.95,6,1,9,0.22
2013-3-22,43,37,32,35,31,29,93,80,58,30.36,30.17,4,2,8,0.24
2013-3-23,49,38,30,31,27,24,89,67,37,30.39,30.27,6,2,6,0.00
2013-3-24,56,42,32,32,28,24,83,63,29,30.27,30.08,5,2,8,0.00
2013-3-25,59,47,37,33,29,25,67,51,30,30.10,29.86,6,1,7,0.02
2013-3-26,58,49,41,39,34,30,72,58,44,29.94,29.87,7,1,10,0.00
2013-3-27,55,48,42,43,40,37,85,74,61,29.90,29.85,2,0,2,0.00
2013-3-28,60,50,42,47,42,37,92,74,54,30.05,29.91,9,1,12,0.11
2013-3-29,60,49,41,44,42,39,93,78,51,30.17,30.07,10,2,10,0.01
2013-3-30,66,52,41,46,41,38,90,71,42,30.19,30.00,5,1,10,0.00
2013-3-31,67,53,42,47,42,37,82,67,46,29.99,29.80,4,1,6,0.00
2013-4-1,61,53,44,47,44,40,90,72,60,30.05,29.85,10,1,12,0.00
2013-4-2,52,49,47,46,45,44,92,84,76,30.12,30.06,6,1,6,0.03
2013-4-3,60,51,45,46,44,43,93,78,53,30.11,29.87,6,1,7,0.00
2013-4-4,54,51,48,51,46,40,92,83,69,29.85,29.53,7,2,12,0.34
2013-4-5,56,51,47,49,46,44,93,86,69,29.76,29.61,8,3,11,1.03
2013-4-6,49,46,44,44,42,38,90,83,74,29.83,29.58,11,4,13,0.28
2013-4-7,43,41,38,40,38,36,93,91,82,29.80,29.41,5,1,11,1.41
2013-4-8,52,44,41,43,41,39,94,88,70,30.21,29.80,5,1,5,0.20
2013-4-9,53,48,42,42,41,40,90,78,66,30.29,30.13,6,2,8,0.00
2013-4-10,54,49,45,48,43,39,93,81,65,30.17,29.82,11,2,16,0.27
2013-4-11,51,46,38,40,37,34,86,71,57,30.22,30.16,4,1,11,0.01
2013-4-12,46,40,37,38,36,34,92,86,71,30.16,29.60,8,3,10,0.33
2013-4-13,44,39,36,41,36,32,93,89,81,29.93,29.71,6,2,8,0.37
2013-4-14,50,42,36,39,36,34,94,81,60,29.96,29.84,6,1,8,0.19
2013-4-15,52,42,38,39,37,35,92,82,56,30.12,29.88,7,1,12,0.11
2013-4-16,54,43,34,38,36,31,92,78,41,30.35,30.13,6,2,6,0.11
2013-4-17,58,47,38,40,36,32,88,67,37,30.40,30.34,7,3,7,0.00
2013-4-18,48,44,42,44,40,36,93,84,74,30.41,30.19,7,2,8,0.31
2013-4-19,51,48,46,49,47,44,94,94,93,30.15,29.99,5,1,6,0.73
2013-4-20,52,47,45,48,44,43,94,91,80,30.22,30.12,2,0,2,0.47
2013-4-21,51,45,41,45,41,37,93,88,70,30.31,30.17,4,0,8,0.45
2013-4-22,58,46,35,39,34,24,93,66,32,30.49,30.33,5,1,10,0.00
2013-4-23,61,48,37,38,34,28,84,61,29,30.38,30.18,10,3,11,0.00
2013-4-24,67,54,40,39,35,29,83,54,25,30.25,29.97,7,2,12,0.00
2013-4-25,69,56,43,43,38,34,70,52,32,30.03,29.94,5,1,10,0.00
2013-4-26,64,54,44,48,44,38,90,71,55,30.15,30.04,6,1,8,0.00
2013-4-27,54,52,48,47,41,36,93,68,51,30.13,30.05,10,2,12,0.35
2013-4-28,54,48,44,46,44,40,94,84,66,30.15,29.88,6,1,7,0.21
2013-4-29,54,46,40,43,34,27,91,65,38,30.09,29.83,11,3,18,0.12
2013-4-30,51,43,35,39,32,23,91,67,33,30.40,30.09,8,2,12,0.12
2013-5-1,62,48,34,37,33,30,83,59,35,30.54,30.42,8,2,13,0.00
2013-5-2,64,52,42,43,38,35,80,60,42,30.48,30.30,7,1,12,0.00
2013-5-3,68,55,42,48,42,38,87,65,45,30.32,30.14,7,2,10,0.00
2013-5-4,76,60,46,48,43,39,89,57,26,30.14,29.89,9,2,16,0.00
2013-5-5,79,66,52,50,45,40,65,49,31,29.87,29.62,8,2,10,0.00
2013-5-6,82,68,56,51,44,38,57,42,28,29.69,29.59,8,2,8,0.00
2013-5-7,70,59,51,53,49,45,87,70,52,29.87,29.66,6,2,10,0.00
2013-5-8,65,55,50,53,49,47,92,83,65,30.04,29.88,5,0,5,0.00
2013-5-9,66,55,46,54,49,44,94,81,54,30.13,30.02,7,2,10,0.00
2013-5-10,74,61,49,55,50,47,93,71,43,30.09,30.00,7,1,10,0.00
2013-5-11,81,65,54,53,50,46,83,62,36,30.04,29.85,4,1,9,0.00
2013-5-12,67,62,57,57,54,50,93,77,59,29.97,29.86,6,2,13,0.17
2013-5-13,60,55,48,55,50,41,91,83,65,30.09,29.81,7,2,20,0.14
2013-5-14,62,52,46,42,40,38,82,64,42,30.16,30.03,7,1,8,0.00
2013-5-15,63,52,45,48,43,38,92,72,49,30.04,29.92,6,2,11,0.10
2013-5-16,50,50,50,48,48,48,93,92,91,29.91,29.88,3,2,6,0.01
2013-5-18,53,53,52,47,47,45,84,80,75,30.18,30.15,0,0,1,0.00
2013-5-19,60,53,49,50,48,44,93,83,61,30.33,30.19,4,0,6,0.06
2013-5-20,66,53,45,49,46,42,93,78,53,30.28,29.81,8,1,11,0.00
2013-5-21,51,47,45,48,45,43,93,90,80,29.80,29.69,2,0,9,0.93
2013-5-22,50,46,43,46,43,41,93,90,84,29.86,29.77,3,1,6,0.15
2013-5-23,56,47,42,47,43,40,93,87,64,29.95,29.86,8,1,9,0.06
2013-5-24,60,51,43,46,44,41,93,78,59,29.95,29.89,5,1,8,0.00
2013-5-25,60,53,48,46,44,41,91,74,49,29.95,29.89,5,1,10,0.03
2013-5-26,60,53,48,53,48,44,90,82,68,29.90,29.84,6,1,8,0.07
2013-5-27,58,54,50,52,50,48,93,87,75,29.86,29.60,9,3,12,0.16
2013-5-28,59,54,50,50,48,46,93,83,66,29.78,29.66,5,2,12,0.07
2013-5-29,52,50,48,49,47,46,93,90,82,29.87,29.56,3,0,8,0.49
2013-5-30,59,52,47,48,46,44,93,81,60,30.14,29.88,6,2,11,0.07
2013-5-31,63,55,49,47,44,41,85,69,45,30.27,30.16,6,1,12,0.00
2013-6-1,68,57,48,49,46,44,87,68,48,30.16,29.94,3,1,10,0.00
2013-6-2,65,57,51,50,48,46,93,74,54,29.99,29.93,5,1,12,0.03
2013-6-3,68,57,49,52,48,45,87,74,56,30.01,29.94,5,1,9,0.00
2013-6-4,76,62,49,55,51,45,92,69,42,30.01,29.89,10,2,11,0.00
2013-6-5,72,62,53,56,52,44,83,69,56,29.97,29.90,10,2,12,0.00
2013-6-6,75,62,50,56,48,37,91,65,38,29.93,29.89,11,1,11,0.00
2013-6-7,63,57,52,50,44,39,79,62,47,30.05,29.89,10,1,10,0.00
2013-6-8,63,56,50,50,46,44,82,71,60,30.08,30.01,5,1,8,0.00
2013-6-9,64,55,50,46,45,42,87,69,49,30.02,29.94,7,1,8,0.00
2013-6-10,66,55,46,48,44,41,90,70,44,29.94,29.77,6,1,10,0.00
2013-6-11,59,53,50,52,46,43,88,77,57,30.00,29.82,6,1,10,0.08
2013-6-12,63,56,49,49,46,42,89,70,47,30.05,30.00,11,3,11,0.04
2013-6-13,62,56,50,51,49,47,91,79,64,30.12,30.03,6,1,8,0.04
2013-6-14,64,56,50,50,47,45,88,73,56,30.14,29.98,8,1,9,0.00
2013-6-15,72,59,47,54,50,44,91,73,52,29.96,29.79,6,2,10,0.00
2013-6-16,69,61,54,59,54,51,91,77,58,29.96,29.85,5,1,10,0.05
2013-6-17,75,61,51,55,51,47,92,72,38,29.97,29.75,5,1,10,0.15
2013-6-18,69,60,54,52,50,45,91,71,42,29.85,29.74,5,1,10,0.00
2013-6-19,64,57,52,52,50,47,91,78,61,29.90,29.78,7,1,10,0.37
2013-6-20,55,53,51,52,50,48,93,92,77,30.02,29.85,4,0,4,1.53
2013-6-21,64,56,51,52,50,49,94,81,65,30.07,30.02,2,0,6,0.02
2013-6-22,74,63,51,55,51,48,92,68,44,30.02,29.72,6,1,8,0.00
2013-6-23,68,63,57,60,57,52,90,80,71,29.71,29.43,3,0,3,0.04
2013-6-24,64,60,56,59,55,52,93,85,67,29.57,29.42,6,2,11,0.26
2013-6-25,70,60,54,57,54,51,92,82,57,29.73,29.54,5,2,9,0.74
2013-6-26,68,61,55,59,55,52,92,81,63,29.95,29.72,7,2,10,0.02
2013-6-27,69,63,57,61,57,54,92,83,71,30.07,29.92,6,1,8,0.06
2013-6-28,84,70,60,64,61,57,93,74,46,30.07,29.88,8,1,8,0.00
2013-6-29,80,70,62,63,60,58,90,73,53,29.94,29.84,4,1,6,0.00
2013-6-30,86,73,62,67,62,58,91,71,51,29.86,29.68,6,1,7,0.00
2013-7-1,80,71,62,63,59,54,79,66,54,29.84,29.74,5,1,7,0.00
2013-7-2,76,66,56,60,54,50,87,69,44,29.96,29.88,5,1,8,0.00
2013-7-3,72,63,53,54,50,45,80,63,48,30.03,29.93,8,2,12,0.00
2013-7-4,68,60,53,53,50,46,84,70,53,30.01,29.90,6,1,8,0.00
2013-7-5,71,61,52,54,52,48,88,72,54,29.92,29.82,5,1,7,0.00
2013-7-6,72,61,54,57,53,51,89,76,56,29.84,29.73,2,1,11,0.00
2013-7-7,75,65,56,57,53,48,85,66,40,29.79,29.73,7,2,10,0.00
2013-7-8,75,63,55,58,54,52,90,76,53,29.96,29.80,5,2,7,0.00
2013-7-9,77,66,56,61,56,49,92,71,55,29.96,29.87,7,1,10,0.00
2013-7-10,70,63,54,56,52,47,77,68,58,29.93,29.83,7,1,10,0.00
2013-7-11,67,59,52,50,47,44,78,66,48,29.97,29.88,2,0,6,0.00
2013-7-12,64,56,49,51,47,44,87,74,61,29.99,29.90,3,1,7,0.00
2013-7-13,74,60,48,51,48,43,91,66,43,30.09,29.99,7,1,9,0.00
2013-7-14,76,63,51,54,49,42,87,63,38,30.02,29.87,9,2,10,0.00
2013-7-15,78,64,50,53,49,46,86,61,37,29.92,29.76,8,2,13,0.00
2013-7-16,83,69,57,59,53,48,79,58,35,29.77,29.65,3,1,9,0.00
2013-7-17,68,64,60,58,56,53,85,73,60,30.06,29.69,7,2,9,0.03
2013-7-18,72,62,55,57,54,51,85,75,58,30.11,30.00,7,1,12,0.00
2013-7-19,74,61,53,59,55,50,94,80,60,30.06,29.91,6,1,10,0.00
2013-7-20,72,59,51,58,54,50,94,84,60,29.98,29.84,3,0,7,0.00
2013-7-21,75,61,51,59,55,49,94,82,56,29.85,29.76,5,1,6,0.00
2013-7-22,74,62,54,59,56,52,94,80,58,29.94,29.81,5,1,8,0.00
2013-7-23,80,64,53,60,55,50,92,74,47,29.93,29.83,8,2,11,0.00
2013-7-24,77,66,55,57,53,48,87,66,49,29.91,29.86,8,2,10,0.00
2013-7-25,78,66,58,57,52,46,71,61,41,29.98,29.90,6,1,9,0.00
2013-7-26,80,65,52,54,49,42,86,59,34,30.03,29.95,8,2,10,0.00
2013-7-27,74,61,51,53,50,46,83,66,44,30.03,29.86,7,1,11,0.00
2013-7-28,71,61,52,54,52,48,89,72,53,29.89,29.82,5,1,12,0.00
2013-7-29,72,62,56,54,52,51,83,72,54,29.88,29.81,3,1,7,0.00
2013-7-30,75,64,56,57,55,52,90,74,51,30.00,29.88,6,1,7,0.00
2013-7-31,67,59,53,60,55,51,93,87,71,30.00,29.86,3,1,8,0.04
2013-8-1,62,59,56,58,55,54,94,87,79,29.95,29.90,2,1,7,0.00
2013-8-2,59,58,56,56,55,52,93,90,81,30.02,29.94,5,1,7,0.63
2013-8-3,70,62,58,59,57,55,94,84,64,30.02,29.92,5,1,8,0.02
2013-8-4,77,65,56,62,57,54,93,78,58,29.94,29.80,7,1,8,0.00
2013-8-5,78,67,57,59,56,50,91,70,50,29.87,29.78,9,1,10,0.00
2013-8-6,80,67,56,57,54,50,90,66,38,29.85,29.77,5,1,9,0.00
2013-8-7,79,67,55,57,53,51,87,63,39,29.87,29.80,6,2,10,0.00
2013-8-8,74,65,56,58,55,50,91,71,54,29.89,29.81,6,1,13,0.00
2013-8-9,78,66,55,58,54,48,82,66,50,29.82,29.68,5,1,8,0.00
2013-8-10,76,67,60,63,60,55,93,79,59,29.86,29.70,8,2,15,0.13
2013-8-11,72,62,57,60,56,53,93,81,59,29.93,29.85,3,0,7,0.06
2013-8-12,74,63,56,58,54,52,88,74,53,29.95,29.87,6,1,11,0.00
2013-8-13,78,65,55,57,54,52,91,70,45,29.98,29.78,5,1,11,0.00
2013-8-14,64,60,58,60,56,54,89,87,84,29.79,29.78,0,0,2,0.00
2013-8-15,69,65,62,64,62,59,93,89,77,29.85,29.75,5,0,8,0.18
2013-8-16,82,69,62,64,60,56,94,75,42,29.86,29.78,3,0,8,0.00
2013-8-17,74,66,59,58,56,54,84,71,56,29.93,29.84,6,1,11,0.00
2013-8-18,72,64,58,58,54,50,87,72,58,29.99,29.94,5,1,10,0.00
2013-8-19,75,65,58,57,53,48,82,66,51,29.98,29.93,6,1,10,0.00
2013-8-20,75,63,54,54,51,48,87,67,43,30.06,29.94,13,2,13,0.00
2013-8-21,79,64,52,56,52,48,91,67,42,29.97,29.80,6,1,12,0.00
2013-8-22,80,68,57,57,55,49,90,64,44,29.80,29.64,3,1,7,0.00
2013-8-23,70,65,60,56,55,53,82,71,58,29.75,29.65,3,1,12,0.00
2013-8-24,70,62,56,59,55,51,92,80,56,29.79,29.71,3,0,7,0.09
2013-8-25,69,60,53,56,53,50,90,78,63,29.82,29.73,6,1,11,0.00
2013-8-26,74,64,59,56,55,54,89,75,53,29.81,29.70,8,2,13,0.03
2013-8-27,76,66,60,59,57,54,87,73,53,29.81,29.64,7,1,8,0.02
2013-8-28,78,67,59,64,59,55,93,77,53,29.74,29.66,5,1,7,0.20
2013-8-29,73,65,63,62,61,60,93,88,65,29.86,29.70,6,2,14,0.78
2013-8-30,75,66,59,61,56,52,91,72,45,30.02,29.88,7,2,14,0.00
2013-8-31,78,64,54,59,55,51,92,74,52,29.95,29.69,7,1,10,0.00
2013-9-1,79,67,58,60,58,54,92,73,51,29.73,29.63,4,1,10,0.00
2013-9-2,78,68,60,58,56,54,86,67,47,29.78,29.69,6,1,14,0.00
2013-9-3,72,63,58,62,58,55,94,86,68,29.89,29.78,2,0,7,0.23
2013-9-4,67,61,56,60,58,54,94,90,79,29.92,29.87,4,0,7,0.00
2013-9-5,65,60,57,61,58,56,94,91,86,29.91,29.80,6,1,11,0.67
2013-9-6,70,62,59,62,59,57,94,88,71,29.98,29.81,6,1,10,0.70
2013-9-7,70,64,60,60,58,57,93,83,67,29.98,29.88,6,1,12,0.06
2013-9-8,74,64,56,61,58,54,94,82,61,29.99,29.89,6,1,10,0.01
2013-9-9,74,63,54,61,57,52,94,83,63,29.94,29.85,4,1,10,0.00
2013-9-10,77,63,55,64,58,53,94,84,63,29.88,29.74,6,1,10,0.10
2013-9-11,89,72,60,65,61,58,93,71,42,29.80,29.70,3,0,6,0.00
2013-9-12,75,66,58,61,58,55,91,76,58,29.84,29.74,5,1,10,0.00
2013-9-13,62,60,56,59,58,54,94,92,89,29.84,29.74,2,0,4,0.00
2013-9-14,64,62,60,60,59,58,93,90,85,29.75,29.60,3,0,6,0.02
2013-9-15,62,60,57,60,58,56,95,94,92,29.67,29.57,3,1,7,0.23
2013-9-16,61,59,54,58,56,52,94,91,87,29.82,29.67,6,2,10,0.36
2013-9-17,57,55,54,54,52,51,93,89,83,29.82,29.76,2,0,6,0.07
2013-9-18,66,57,52,54,51,47,94,81,57,29.97,29.83,5,1,7,0.09
2013-9-19,80,63,48,50,46,43,85,58,30,29.94,29.60,5,2,10,0.00
2013-9-20,74,64,56,54,48,41,90,57,42,29.59,29.41,7,2,14,0.12
2013-9-21,67,60,55,54,52,49,91,77,53,29.57,29.47,5,1,10,0.00
2013-9-22,58,56,53,52,50,46,90,83,68,29.59,29.44,10,3,14,0.17
2013-9-23,58,54,49,52,50,48,94,86,75,29.86,29.61,7,2,13,1.03
2013-9-24,56,51,49,52,48,47,94,89,75,29.86,29.73,3,1,8,0.62
2013-9-25,55,50,47,51,47,45,94,89,80,29.94,29.75,5,1,7,0.04
2013-9-26,60,51,46,48,46,44,93,84,64,30.05,29.94,5,1,11,0.00
2013-9-27,54,51,48,50,47,44,92,87,81,30.02,29.75,6,3,11,0.20
2013-9-28,58,54,50,56,51,48,93,90,85,29.73,29.21,10,4,11,0.84
2013-9-29,52,51,50,48,47,45,90,87,80,29.44,29.25,16,6,16,0.25
2013-9-30,55,52,49,48,45,43,84,79,71,29.81,29.59,8,4,12,0.00
2013-10-1,55,49,46,45,43,40,90,79,64,30.03,29.81,8,2,10,0.08
2013-10-2,50,48,46,47,45,44,93,88,81,30.09,29.98,5,1,5,0.15
2013-10-3,56,50,46,46,45,43,94,85,66,30.38,30.11,2,0,6,0.00
2013-10-4,67,52,42,47,43,39,91,73,42,30.42,30.26,5,1,7,0.00
2013-10-5,68,56,46,49,45,40,81,67,47,30.27,30.02,4,1,6,0.00
2013-10-6,76,62,53,48,43,34,75,54,22,30.00,29.75,7,2,8,0.01
2013-10-7,54,51,49,49,48,46,93,90,83,29.93,29.74,7,2,11,0.88
2013-10-8,55,49,43,49,45,41,94,87,64,30.00,29.86,3,0,9,0.23
2013-10-9,57,47,38,45,41,37,94,80,60,30.08,29.86,4,1,6,0.00
2013-10-10,55,49,45,47,44,42,91,83,71,29.98,29.84,3,0,5,0.00
2013-10-11,54,49,46,48,46,44,94,88,76,30.06,29.98,3,0,5,0.02
2013-10-12,55,49,46,48,44,42,93,85,68,30.14,29.98,8,1,8,0.03
2013-10-13,56,47,43,46,43,41,94,87,69,30.30,30.15,3,0,5,0.00
2013-10-14,56,47,40,46,42,38,93,85,67,30.37,30.30,2,0,7,0.00
2013-10-15,59,50,43,47,44,41,93,81,58,30.32,30.08,4,0,5,0.02
2013-10-16,49,47,42,47,44,41,94,92,87,30.13,30.06,2,0,4,0.00
2013-10-17,57,49,45,48,45,43,93,87,71,30.21,30.13,2,0,6,0.00
2013-10-18,56,48,40,48,44,38,94,88,74,30.18,30.08,4,1,7,0.00
2013-10-19,47,43,37,45,41,36,95,94,93,30.14,30.07,0,0,3,0.01
2013-10-20,46,45,42,45,43,41,95,95,94,30.15,30.09,2,0,3,0.01
2013-10-21,48,45,42,47,44,41,95,95,95,30.11,30.03,1,0,3,0.01
2013-10-22,49,46,43,48,45,42,95,95,95,30.05,29.96,2,0,3,0.02
2013-10-23,60,48,37,51,45,36,95,90,71,29.98,29.89,3,0,5,0.00
2013-10-24,50,44,38,46,43,37,95,94,87,30.06,29.92,3,0,6,0.01
2013-10-25,48,47,46,47,45,44,95,94,92,30.25,30.06,2,0,4,0.02
2013-10-26,50,47,45,45,44,43,93,89,81,30.27,30.13,2,0,3,0.00
2013-10-27,56,48,44,48,44,42,94,89,72,30.11,29.79,3,1,7,0.24
2013-10-28,60,48,41,42,37,32,93,69,35,29.87,29.78,6,0,8,0.00
2013-10-29,55,45,37,38,35,32,82,68,46,29.96,29.86,5,2,6,0.00
2013-10-30,53,47,41,45,38,33,90,72,58,30.06,29.96,7,3,10,0.02
2013-10-31,50,48,46,49,46,42,94,92,83,30.18,30.02,6,1,8,0.19
2013-11-1,58,53,49,52,49,45,93,86,72,30.20,29.73,3,1,7,0.02
2013-11-2,51,46,41,48,44,39,93,90,80,29.80,29.34,12,3,20,1.74
2013-11-3,47,40,35,42,38,32,94,90,81,30.05,29.82,5,1,6,0.20
2013-11-4,47,39,33,38,34,30,90,80,59,30.16,30.02,4,1,8,0.10
2013-11-5,48,44,40,46,42,38,95,93,90,30.19,29.97,6,2,10,0.12
2013-11-6,50,45,41,46,42,39,95,88,78,30.27,29.95,6,1,14,0.09
2013-11-7,48,46,46,46,44,43,94,91,85,29.92,29.62,13,6,22,0.95
2013-11-8,52,46,44,45,43,40,94,88,75,30.09,29.90,3,1,8,0.14
2013-11-9,50,44,39,43,41,37,93,86,74,30.08,30.00,3,1,5,0.07
2013-11-10,46,45,43,45,43,41,95,94,93,30.09,30.03,1,0,4,0.12
2013-11-11,58,51,43,52,43,37,95,78,50,30.09,29.90,13,1,13,0.00
2013-11-12,56,53,49,52,47,38,93,80,51,30.27,29.93,7,2,13,0.12
2013-11-13,55,51,48,48,46,44,91,84,70,30.35,30.23,7,1,10,0.00
2013-11-14,47,45,42,45,44,40,94,94,92,30.21,29.99,3,0,3,0.32
2013-11-15,44,43,41,43,41,38,95,93,81,29.98,29.24,8,2,18,1.00
2013-11-16,44,40,37,41,38,35,94,89,84,29.69,29.26,3,1,15,0.67
2013-11-17,49,45,39,43,41,36,91,86,80,29.80,29.70,6,2,14,0.01
2013-11-18,50,48,46,48,45,42,94,91,85,29.80,29.44,7,3,13,0.37
2013-11-19,51,41,34,49,36,23,94,81,59,30.01,29.41,6,1,18,0.46
2013-11-20,41,33,28,29,26,24,89,76,57,30.50,30.04,5,0,7,0.00
2013-11-21,40,32,27,27,25,23,90,76,50,30.69,30.51,3,0,7,0.00
2013-11-22,45,34,28,28,26,22,84,71,52,30.65,30.44,1,0,5,0.00
2013-11-23,48,40,35,34,30,24,83,68,54,30.40,30.15,3,0,5,0.00
2013-11-24,47,40,34,35,33,30,87,77,62,30.21,30.12,3,1,5,0.00
2013-11-25,55,45,39,40,33,29,75,63,50,30.26,30.20,6,1,7,0.00
2013-11-26,58,46,40,36,31,27,70,55,32,30.19,30.02,5,2,8,0.00
2013-11-27,56,47,43,43,38,32,87,70,57,29.99,29.86,7,1,8,0.00
2013-11-28,54,46,41,38,34,31,76,64,48,30.10,29.94,6,1,7,0.00
2013-11-29,46,44,41,42,38,34,92,81,64,30.27,30.09,3,1,5,0.02
2013-11-30,48,46,44,46,42,40,93,86,75,30.26,30.01,6,2,11,0.19
2013-12-1,51,48,38,50,46,35,94,93,90,29.98,29.65,8,2,14,1.13
2013-12-2,38,35,33,35,33,32,93,91,86,30.01,29.73,3,1,10,0.07
2013-12-3,35,32,30,32,29,28,94,91,83,30.31,30.03,2,0,4,0.00
2013-12-4,36,29,26,28,24,22,91,82,61,30.35,30.28,2,0,5,0.00
2013-12-5,31,26,24,22,19,14,88,75,60,30.32,30.21,2,0,7,0.00
2013-12-6,30,23,18,14,10,5,74,56,37,30.27,30.17,10,1,11,0.00
2013-12-7,26,19,14,10,7,2,76,60,35,30.46,30.26,3,0,8,0.00
2013-12-8,31,23,16,14,12,10,78,65,47,30.60,30.46,6,0,6,0.00
2013-12-9,29,26,20,26,20,14,89,76,71,30.62,30.50,3,0,6,0.00
2013-12-10,36,33,28,31,29,24,90,85,79,30.51,30.41,2,0,6,0.00
2013-12-11,40,35,31,32,29,25,85,77,64,30.39,30.12,5,1,8,0.00
2013-12-12,45,40,36,40,34,29,89,77,57,30.09,30.00,15,3,15,0.11
2013-12-13,45,44,42,44,42,40,95,94,91,30.36,30.07,6,2,8,0.14
2013-12-14,47,45,43,44,42,41,94,87,80,30.38,30.27,6,3,11,0.00
2013-12-15,47,46,43,46,44,42,94,93,90,30.40,30.26,4,1,9,0.14
2013-12-16,49,41,36,43,39,34,94,90,79,30.46,30.22,3,0,5,0.00
2013-12-17,42,37,32,40,35,29,94,93,86,30.22,30.07,5,1,7,0.03
2013-12-18,42,38,30,40,35,28,94,89,75,30.12,29.97,3,0,7,0.02
2013-12-19,34,30,26,30,26,22,92,85,69,30.34,30.15,2,0,4,0.02
2013-12-20,38,34,29,37,31,22,94,90,67,30.20,29.67,6,2,17,0.98
2013-12-21,41,39,36,40,37,34,95,94,94,30.12,29.78,2,0,6,0.36
2013-12-22,47,44,40,46,43,39,95,95,94,30.23,30.11,6,2,11,0.74
2013-12-23,48,46,41,47,42,37,95,89,74,30.48,30.05,10,2,24,0.53
2013-12-24,45,40,33,39,36,30,93,88,77,30.59,30.48,3,0,7,0.07
2013-12-25,43,36,31,35,32,29,92,87,71,30.52,30.37,3,0,6,0.02
2013-12-26,49,40,35,39,35,31,91,83,67,30.36,30.15,3,0,6,0.00
2013-12-27,46,41,36,42,39,34,94,91,76,30.32,30.05,6,1,8,0.15
2013-12-28,45,42,38,43,40,37,94,93,89,30.48,30.32,0,0,5,0.00
2013-12-29,40,38,35,38,36,34,95,95,94,30.44,30.29,5,0,7,0.02
2013-12-30,44,42,38,42,40,37,95,92,90,30.27,30.09,0,0,6,0.05
2013-12-31,44,43,42,42,41,40,93,92,88,30.32,30.14,2,0,7,0.04
2014-1-1,44,40,36,41,38,34,93,92,84,30.36,30.21,3,0,6,0.02
2014-1-2,49,44,40,43,40,38,94,86,68,30.19,29.82,6,2,19,0.99